Time;durP1;ratioP1;P1;durP2;ratioP2;P2;SDS_P1;SDS_P2;PMS_P1;PMS_P2;Temp;Humidity;BMP_temperature;BMP_pressure;BME280_temperature;BME280_humidity;BME280_pressure;Samples;Min_cycle;Max_cycle;Signal;HPM_P1;HPM_P2
2021/12/09 00:01:21;;;;;;;18.27;16.80;;;3.50;99.90;;;;;;5054744;28;20437;-76
2021/12/09 00:03:51;;;;;;;18.80;17.27;;;3.50;99.90;;;;;;5053812;28;20472;-75
2021/12/09 00:06:22;;;;;;;18.30;16.97;;;3.50;99.90;;;;;;5054764;28;20672;-75
2021/12/09 00:08:49;;;;;;;18.30;16.80;;;3.50;99.90;;;;;;5053289;28;21013;-76
2021/12/09 00:11:17;;;;;;;17.83;16.53;;;3.60;99.90;;;;;;5054589;28;20477;-75
2021/12/09 00:13:44;;;;;;;18.10;16.57;;;3.50;99.90;;;;;;5053267;28;20199;-76
2021/12/09 00:16:11;;;;;;;18.27;16.73;;;3.50;99.90;;;;;;5054469;28;20203;-75
2021/12/09 00:18:37;;;;;;;17.87;16.60;;;3.50;99.90;;;;;;5054193;28;20699;-76
2021/12/09 00:21:06;;;;;;;18.17;16.77;;;3.50;99.90;;;;;;5054486;28;20195;-76
2021/12/09 00:23:33;;;;;;;17.53;16.17;;;3.40;99.90;;;;;;5054609;28;20191;-76
2021/12/09 00:26:00;;;;;;;17.53;16.23;;;3.30;99.90;;;;;;5054350;28;20203;-75
2021/12/09 00:28:26;;;;;;;18.47;17.07;;;3.20;99.90;;;;;;5052737;28;20711;-76
2021/12/09 00:30:53;;;;;;;17.27;15.90;;;3.20;99.90;;;;;;5054253;28;20480;-75
2021/12/09 00:33:20;;;;;;;12.13;8.27;;;3.10;99.90;;;;;;5054306;28;20203;-76
2021/12/09 00:35:53;;;;;;;8.73;7.87;;;3.10;99.90;;;;;;5054275;28;21007;-76
2021/12/09 00:38:33;;;;;;;12.00;10.90;;;3.10;99.90;;;;;;5053921;28;20877;-76
2021/12/09 00:41:02;;;;;;;7.97;6.27;;;3.10;99.90;;;;;;5054131;28;20456;-75
2021/12/09 00:43:29;;;;;;;15.27;13.93;;;3.00;99.90;;;;;;5046017;28;20223;-76
2021/12/09 00:45:57;;;;;;;9.47;6.63;;;3.00;99.90;;;;;;5054003;28;20441;-76
2021/12/09 00:48:24;;;;;;;8.13;7.23;;;3.00;99.90;;;;;;5046644;28;20750;-76
2021/12/09 00:50:52;;;;;;;8.73;6.20;;;2.90;99.90;;;;;;5053791;28;20472;-76
2021/12/09 00:53:20;;;;;;;14.57;13.33;;;2.90;99.90;;;;;;5047558;28;20410;-76
2021/12/09 00:55:48;;;;;;;9.63;8.63;;;2.90;99.90;;;;;;5052254;28;20473;-75
2021/12/09 00:58:15;;;;;;;12.80;11.70;;;2.80;99.90;;;;;;5045419;28;20470;-76
2021/12/09 01:00:42;;;;;;;8.83;6.97;;;2.80;99.90;;;;;;5053882;28;20480;-75
2021/12/09 01:03:09;;;;;;;7.40;6.13;;;2.70;99.90;;;;;;5053485;28;20438;-75
2021/12/09 01:05:36;;;;;;;8.70;6.23;;;2.80;99.90;;;;;;5053614;28;20788;-76
2021/12/09 01:08:03;;;;;;;10.50;7.60;;;2.80;99.90;;;;;;5053252;28;20809;-75
2021/12/09 01:10:34;;;;;;;9.83;8.93;;;2.80;99.90;;;;;;5053601;28;20532;-75
2021/12/09 01:13:01;;;;;;;10.93;7.03;;;2.70;99.90;;;;;;5053476;28;20983;-76
2021/12/09 01:15:28;;;;;;;10.43;8.57;;;2.70;99.90;;;;;;5045394;28;20446;-75
2021/12/09 01:17:56;;;;;;;7.40;6.60;;;2.70;99.90;;;;;;5051872;28;20989;-75
2021/12/09 01:20:25;;;;;;;9.07;7.10;;;2.70;99.90;;;;;;5053250;28;20448;-76
2021/12/09 01:22:54;;;;;;;14.00;12.83;;;2.70;99.90;;;;;;5052147;28;20457;-75
2021/12/09 01:25:22;;;;;;;12.90;11.37;;;2.70;99.90;;;;;;5053163;28;20450;-75
2021/12/09 01:27:53;;;;;;;14.63;13.23;;;2.70;99.90;;;;;;5053216;28;20454;-76
2021/12/09 01:30:22;;;;;;;15.50;14.10;;;2.70;99.90;;;;;;5053206;28;21009;-76
2021/12/09 01:32:53;;;;;;;13.90;12.40;;;2.60;99.90;;;;;;5053095;28;20810;-75
2021/12/09 01:35:22;;;;;;;17.53;16.23;;;2.60;99.90;;;;;;5051821;28;20482;-76
2021/12/09 01:37:54;;;;;;;13.50;12.27;;;2.60;99.90;;;;;;5051496;28;20473;-76
2021/12/09 01:40:21;;;;;;;14.10;12.80;;;2.60;99.90;;;;;;5052997;28;20439;-75
2021/12/09 01:42:49;;;;;;;18.17;16.53;;;2.60;99.90;;;;;;5047890;28;20500;-76
2021/12/09 01:45:17;;;;;;;13.10;11.80;;;2.60;99.90;;;;;;5051291;28;20438;-76
2021/12/09 01:47:45;;;;;;;13.53;12.17;;;2.70;99.90;;;;;;5051264;28;20465;-76
2021/12/09 01:50:12;;;;;;;16.73;15.47;;;2.70;99.90;;;;;;5052738;28;20473;-76
2021/12/09 01:52:39;;;;;;;15.20;13.80;;;2.70;99.90;;;;;;5052889;28;20494;-76
2021/12/09 01:55:08;;;;;;;14.23;12.90;;;2.70;99.90;;;;;;5045014;28;20544;-76
2021/12/09 01:57:36;;;;;;;16.57;15.47;;;2.70;99.90;;;;;;5052369;28;20457;-77
2021/12/09 02:00:05;;;;;;;9.53;7.30;;;2.70;99.90;;;;;;5052461;28;20440;-75
2021/12/09 02:02:33;;;;;;;14.27;13.03;;;2.70;99.90;;;;;;5052881;28;20442;-75
2021/12/09 02:05:00;;;;;;;15.80;14.40;;;2.70;99.90;;;;;;5052541;28;20488;-75
2021/12/09 02:07:27;;;;;;;19.40;17.90;;;2.80;99.90;;;;;;5043251;28;20512;-76
2021/12/09 02:09:54;;;;;;;18.70;17.20;;;2.80;99.90;;;;;;5051141;28;20538;-76
2021/12/09 02:12:21;;;;;;;17.70;16.40;;;2.80;99.90;;;;;;5052454;28;20484;-75
2021/12/09 02:14:47;;;;;;;17.50;16.10;;;2.80;99.90;;;;;;5047089;28;20444;-76
2021/12/09 02:17:14;;;;;;;18.33;16.70;;;2.80;99.90;;;;;;5052152;28;20999;-76
2021/12/09 02:19:44;;;;;;;17.57;16.27;;;2.80;99.90;;;;;;5052301;28;20504;-76
2021/12/09 02:22:15;;;;;;;18.13;16.73;;;2.80;99.90;;;;;;5050819;28;20229;-76
2021/12/09 02:24:42;;;;;;;17.17;15.77;;;2.80;99.90;;;;;;5052322;28;21049;-76
2021/12/09 02:27:10;;;;;;;9.30;8.40;;;2.80;99.90;;;;;;5052041;28;20434;-75
2021/12/09 02:29:39;;;;;;;9.60;7.13;;;2.90;99.90;;;;;;5052111;28;20980;-75
2021/12/09 02:32:06;;;;;;;10.77;9.87;;;2.90;99.90;;;;;;5052002;28;20508;-76
2021/12/09 02:34:36;;;;;;;16.63;15.43;;;2.90;99.90;;;;;;5052115;28;20498;-76
2021/12/09 02:37:04;;;;;;;10.57;9.57;;;2.90;99.90;;;;;;5050600;28;20209;-76
2021/12/09 02:39:32;;;;;;;8.17;7.37;;;2.90;99.90;;;;;;5051780;28;20455;-76
2021/12/09 02:41:59;;;;;;;6.80;6.17;;;3.00;99.90;;;;;;5052338;28;20519;-76
2021/12/09 02:44:27;;;;;;;7.77;6.97;;;3.00;99.90;;;;;;5051883;28;20487;-76
2021/12/09 02:46:56;;;;;;;8.80;6.90;;;3.00;99.90;;;;;;5050693;28;20442;-76
2021/12/09 02:49:27;;;;;;;10.73;8.70;;;3.00;99.90;;;;;;5051726;28;20551;-76
2021/12/09 02:51:55;;;;;;;8.83;6.70;;;3.10;99.90;;;;;;5051599;28;20207;-76
2021/12/09 02:54:24;;;;;;;10.97;9.97;;;3.10;99.90;;;;;;5051789;28;20491;-75
2021/12/09 02:56:55;;;;;;;11.37;10.37;;;3.10;99.90;;;;;;5051540;28;20438;-75
2021/12/09 02:59:22;;;;;;;16.50;15.27;;;3.10;99.90;;;;;;5051678;28;20453;-76
2021/12/09 03:01:57;;;;;;;13.97;12.97;;;3.10;99.90;;;;;;5051674;28;20926;-76
2021/12/09 03:04:26;;;;;;;16.57;15.27;;;3.10;99.90;;;;;;5051463;28;20200;-76
2021/12/09 03:06:54;;;;;;;18.80;17.33;;;3.10;99.90;;;;;;5051533;28;20442;-76
2021/12/09 03:09:22;;;;;;;17.73;16.43;;;3.10;99.90;;;;;;5057210;23;20567;-82
2021/12/09 03:11:54;;;;;;;17.13;15.93;;;3.10;99.90;;;;;;5008268;28;20478;-83
2021/12/09 03:14:24;;;;;;;17.90;16.60;;;3.10;99.90;;;;;;5002182;28;20527;-83
2021/12/09 03:16:51;;;;;;;18.30;17.00;;;3.10;99.90;;;;;;5000402;28;20448;-82
2021/12/09 03:19:18;;;;;;;17.60;16.30;;;3.10;99.90;;;;;;5000209;28;20469;-83
2021/12/09 03:21:47;;;;;;;18.93;17.10;;;3.10;99.90;;;;;;4986240;28;20507;-82
2021/12/09 03:24:16;;;;;;;17.93;16.53;;;3.00;99.90;;;;;;4982466;28;20451;-82
2021/12/09 03:26:47;;;;;;;17.40;16.17;;;3.00;99.90;;;;;;4985916;28;20437;-82
2021/12/09 03:29:16;;;;;;;20.00;18.30;;;3.00;99.90;;;;;;4982997;28;20253;-83
2021/12/09 03:31:46;;;;;;;19.50;17.93;;;3.00;99.90;;;;;;4984250;28;20468;-82
2021/12/09 03:34:15;;;;;;;21.40;19.57;;;3.00;99.90;;;;;;4978584;28;20449;-84
2021/12/09 03:36:42;;;;;;;22.10;20.20;;;3.00;99.90;;;;;;4982968;28;20441;-81
2021/12/09 03:39:13;;;;;;;21.73;19.90;;;3.00;99.90;;;;;;4982780;28;20506;-81
2021/12/09 03:41:41;;;;;;;21.43;19.77;;;3.00;99.90;;;;;;4983134;28;20452;-82
2021/12/09 03:44:08;;;;;;;20.93;19.33;;;3.10;99.90;;;;;;4987173;28;20472;-82
2021/12/09 03:46:35;;;;;;;20.13;18.50;;;3.10;99.90;;;;;;4991834;28;20507;-82
2021/12/09 03:49:05;;;;;;;22.40;20.67;;;3.10;99.90;;;;;;4994367;28;20879;-78
2021/12/09 03:51:35;;;;;;;22.13;20.23;;;3.10;99.90;;;;;;4985722;28;20490;-79
2021/12/09 03:54:02;;;;;;;22.83;20.73;;;3.10;99.90;;;;;;4991274;28;20440;-79
2021/12/09 03:56:29;;;;;;;21.20;19.60;;;3.10;99.90;;;;;;5005974;28;20452;-78
2021/12/09 03:58:56;;;;;;;22.27;20.27;;;3.10;99.90;;;;;;4985640;28;20261;-80
2021/12/09 04:01:23;;;;;;;22.27;20.30;;;3.10;99.90;;;;;;4984077;28;20706;-79
2021/12/09 04:03:50;;;;;;;18.40;16.80;;;3.10;99.90;;;;;;4993672;28;20462;-78
2021/12/09 04:06:18;;;;;;;20.20;18.50;;;3.20;99.90;;;;;;4992518;28;20474;-78
2021/12/09 04:08:47;;;;;;;13.03;11.73;;;3.10;99.90;;;;;;4990507;28;20484;-78
2021/12/09 04:11:14;;;;;;;13.83;12.40;;;3.10;99.90;;;;;;4997749;28;20476;-77
2021/12/09 04:13:41;;;;;;;16.33;14.67;;;3.10;99.90;;;;;;4992737;28;21019;-77
2021/12/09 04:16:08;;;;;;;16.93;13.87;;;3.10;99.90;;;;;;4999747;28;20498;-78
2021/12/09 04:18:35;;;;;;;13.03;10.47;;;3.10;99.90;;;;;;4992746;28;20433;-85
2021/12/09 04:21:02;;;;;;;14.47;12.60;;;3.10;99.90;;;;;;4991634;28;20948;-81
2021/12/09 04:23:31;;;;;;;13.80;11.60;;;3.10;99.90;;;;;;5005058;28;20216;-77
2021/12/09 04:25:58;;;;;;;15.50;13.00;;;3.10;99.90;;;;;;4980122;28;20444;-84
2021/12/09 04:28:25;;;;;;;15.87;13.63;;;3.20;99.90;;;;;;4978678;28;20450;-85
2021/12/09 04:30:52;;;;;;;15.13;12.87;;;3.20;99.90;;;;;;4990720;28;20209;-85
2021/12/09 04:33:19;;;;;;;15.07;11.00;;;3.20;99.90;;;;;;4976076;28;20443;-84
2021/12/09 04:35:46;;;;;;;12.53;10.67;;;3.20;99.90;;;;;;4973650;28;20456;-85
2021/12/09 04:38:13;;;;;;;14.63;13.13;;;3.10;99.90;;;;;;4985036;28;20511;-84
2021/12/09 04:40:41;;;;;;;13.17;11.07;;;3.10;99.90;;;;;;4982984;28;20481;-84
2021/12/09 04:43:08;;;;;;;13.27;10.93;;;3.10;99.90;;;;;;4989130;28;20205;-83
2021/12/09 04:45:38;;;;;;;10.37;9.27;;;3.10;99.90;;;;;;4989517;28;20494;-83
2021/12/09 04:48:06;;;;;;;21.33;19.43;;;3.10;99.90;;;;;;4992864;28;20471;-83
2021/12/09 04:50:34;;;;;;;22.27;20.47;;;3.10;99.90;;;;;;4986879;28;20637;-84
2021/12/09 04:53:01;;;;;;;21.50;19.67;;;3.10;99.90;;;;;;4994001;28;20457;-82
2021/12/09 04:55:28;;;;;;;21.93;19.93;;;3.10;99.90;;;;;;4994700;28;20458;-82
2021/12/09 04:57:56;;;;;;;20.90;19.10;;;3.10;99.90;;;;;;4978262;28;20452;-84
2021/12/09 05:00:26;;;;;;;23.30;21.00;;;3.10;99.90;;;;;;4974380;28;20222;-83
2021/12/09 05:03:03;;;;;;;22.53;20.53;;;3.20;99.90;;;;;;4979885;28;21016;-83
2021/12/09 05:05:35;;;;;;;21.57;19.77;;;3.20;99.90;;;;;;4982615;28;20540;-83
2021/12/09 05:08:02;;;;;;;21.20;19.37;;;3.20;99.90;;;;;;4986669;28;20457;-85
2021/12/09 05:10:34;;;;;;;21.07;19.17;;;3.20;99.90;;;;;;4992590;28;20467;-85
2021/12/09 05:13:03;;;;;;;21.77;19.70;;;3.30;99.90;;;;;;4992935;28;20247;-85
2021/12/09 05:15:31;;;;;;;19.30;17.80;;;3.30;99.90;;;;;;4993767;28;20252;-85
2021/12/09 05:17:58;;;;;;;19.73;18.20;;;3.30;99.90;;;;;;4992638;28;20202;-85
2021/12/09 05:20:25;;;;;;;19.50;17.77;;;3.20;99.90;;;;;;4992858;28;20252;-85
2021/12/09 05:22:51;;;;;;;19.93;18.23;;;3.20;99.90;;;;;;4990078;28;20243;-85
2021/12/09 05:25:18;;;;;;;19.77;18.17;;;3.20;99.90;;;;;;4994661;28;20212;-84
2021/12/09 05:27:45;;;;;;;19.50;17.90;;;3.20;99.90;;;;;;4992085;28;20441;-84
2021/12/09 05:30:13;;;;;;;19.73;18.23;;;3.20;99.90;;;;;;4991636;28;20221;-84
2021/12/09 05:32:39;;;;;;;20.30;18.57;;;3.20;99.90;;;;;;4990338;28;20228;-84
2021/12/09 05:35:08;;;;;;;18.70;17.50;;;3.30;99.90;;;;;;4986270;28;20194;-84
2021/12/09 05:37:35;;;;;;;20.23;18.40;;;3.30;99.90;;;;;;4994993;28;20201;-84
2021/12/09 05:40:02;;;;;;;19.10;17.60;;;3.30;99.90;;;;;;4988449;28;20286;-85
2021/12/09 05:42:29;;;;;;;18.83;17.43;;;3.30;99.90;;;;;;4986610;28;20864;-83
2021/12/09 05:44:57;;;;;;;19.93;18.27;;;3.30;99.90;;;;;;4989437;28;20220;-84
2021/12/09 05:47:25;;;;;;;19.43;17.83;;;3.30;99.90;;;;;;4985301;28;20581;-84
2021/12/09 05:49:53;;;;;;;19.43;17.63;;;3.30;99.90;;;;;;4984389;28;20466;-84
2021/12/09 05:52:20;;;;;;;18.40;16.90;;;3.30;99.90;;;;;;4993996;28;20213;-85
2021/12/09 05:54:47;;;;;;;18.13;16.53;;;3.30;99.90;;;;;;4990145;28;20204;-84
2021/12/09 05:57:15;;;;;;;18.90;17.33;;;3.30;99.90;;;;;;4994932;28;20283;-85
2021/12/09 05:59:42;;;;;;;17.50;16.30;;;3.30;99.90;;;;;;4986843;28;20268;-84
2021/12/09 06:02:11;;;;;;;17.73;16.43;;;3.30;99.90;;;;;;4985447;28;20205;-84
2021/12/09 06:04:39;;;;;;;18.30;16.90;;;3.30;99.90;;;;;;4985738;28;20208;-85
2021/12/09 06:07:06;;;;;;;17.67;16.43;;;3.30;99.90;;;;;;4992965;28;20329;-85
2021/12/09 06:09:34;;;;;;;17.70;16.40;;;3.30;99.90;;;;;;4985601;28;20244;-84
2021/12/09 06:12:01;;;;;;;19.73;17.83;;;3.30;99.90;;;;;;4987262;28;20221;-84
2021/12/09 06:14:27;;;;;;;18.73;17.23;;;3.30;99.90;;;;;;4996087;28;20197;-84
2021/12/09 06:16:55;;;;;;;19.20;17.60;;;3.40;99.90;;;;;;4986268;28;20682;-84
2021/12/09 06:19:22;;;;;;;18.00;16.40;;;3.30;99.90;;;;;;4994906;28;20236;-84
2021/12/09 06:21:50;;;;;;;19.67;17.83;;;3.30;99.90;;;;;;4980397;28;20639;-84
2021/12/09 06:24:18;;;;;;;19.10;17.50;;;3.30;99.90;;;;;;4981343;28;20216;-84
2021/12/09 06:26:46;;;;;;;18.80;17.07;;;3.30;99.90;;;;;;4991128;28;20793;-85
2021/12/09 06:29:13;;;;;;;19.27;17.30;;;3.30;99.90;;;;;;4984369;28;20320;-84
2021/12/09 06:31:40;;;;;;;18.40;17.00;;;3.30;99.90;;;;;;4985606;28;20221;-84
2021/12/09 06:34:07;;;;;;;19.13;17.63;;;3.20;99.90;;;;;;4985162;28;20212;-84
2021/12/09 06:36:34;;;;;;;18.60;17.17;;;3.30;99.90;;;;;;4989200;28;20650;-84
2021/12/09 06:39:02;;;;;;;18.47;16.93;;;3.30;99.90;;;;;;4991446;28;20718;-84
2021/12/09 06:41:29;;;;;;;17.60;16.40;;;3.30;99.90;;;;;;4997187;28;20676;-84
2021/12/09 06:43:56;;;;;;;17.50;16.20;;;3.30;99.90;;;;;;4993571;28;20253;-85
2021/12/09 06:46:23;;;;;;;19.07;17.30;;;3.20;99.90;;;;;;5005196;28;20206;-86
2021/12/09 06:48:50;;;;;;;18.37;17.07;;;3.30;99.90;;;;;;4983743;28;20240;-86
2021/12/09 06:51:17;;;;;;;18.17;16.77;;;3.20;99.90;;;;;;4987172;28;20227;-86
2021/12/09 06:53:44;;;;;;;18.23;16.90;;;3.20;99.90;;;;;;4995858;28;20576;-86
2021/12/09 06:56:13;;;;;;;16.27;15.23;;;3.20;99.90;;;;;;4996396;28;20194;-85
2021/12/09 06:58:40;;;;;;;18.57;17.17;;;3.20;99.90;;;;;;4995357;28;20217;-85
2021/12/09 07:01:07;;;;;;;18.77;17.37;;;3.20;99.90;;;;;;4986713;28;20215;-85
2021/12/09 07:03:35;;;;;;;18.57;16.93;;;3.20;99.90;;;;;;4983911;28;20442;-85
2021/12/09 07:06:06;;;;;;;18.80;17.33;;;3.20;99.90;;;;;;4988097;28;20292;-85
2021/12/09 07:08:35;;;;;;;18.43;16.83;;;3.20;99.90;;;;;;4984495;28;20229;-85
2021/12/09 07:11:03;;;;;;;18.23;16.83;;;3.20;99.90;;;;;;4986737;28;20284;-85
2021/12/09 07:13:31;;;;;;;18.47;17.00;;;3.10;99.90;;;;;;4988782;28;20221;-85
2021/12/09 07:15:58;;;;;;;18.60;17.17;;;3.20;99.90;;;;;;4987590;28;20253;-85
2021/12/09 07:18:26;;;;;;;18.40;16.97;;;3.20;99.90;;;;;;4994205;28;20530;-85
2021/12/09 07:20:53;;;;;;;18.63;17.03;;;3.10;99.90;;;;;;4988301;28;20749;-86
2021/12/09 07:23:20;;;;;;;17.60;16.30;;;3.10;99.90;;;;;;4987908;28;20201;-85
2021/12/09 07:25:47;;;;;;;16.63;15.57;;;3.20;99.90;;;;;;4995168;28;20659;-85
2021/12/09 07:28:14;;;;;;;17.07;15.73;;;3.20;99.90;;;;;;5006474;28;20204;-85
2021/12/09 07:30:43;;;;;;;17.60;16.17;;;3.20;99.90;;;;;;4985191;28;20225;-84
2021/12/09 07:33:10;;;;;;;17.37;16.07;;;3.30;99.90;;;;;;4988935;28;20217;-84
2021/12/09 07:35:37;;;;;;;18.60;16.83;;;3.30;99.90;;;;;;4986613;28;20269;-85
2021/12/09 07:38:05;;;;;;;17.97;16.67;;;3.30;99.90;;;;;;4984628;28;20210;-84
2021/12/09 07:40:32;;;;;;;18.13;16.73;;;3.30;99.90;;;;;;4984272;28;20303;-85
2021/12/09 07:42:59;;;;;;;18.03;16.50;;;3.40;99.90;;;;;;4984664;28;20499;-85
2021/12/09 07:45:27;;;;;;;17.40;16.10;;;3.40;99.90;;;;;;4989312;28;20632;-85
2021/12/09 07:47:55;;;;;;;17.50;16.20;;;3.40;99.90;;;;;;4988719;28;20639;-85
2021/12/09 07:50:26;;;;;;;17.00;15.60;;;3.40;99.90;;;;;;4991224;28;20465;-85
2021/12/09 07:52:53;;;;;;;17.40;15.77;;;3.40;99.90;;;;;;4990036;28;20484;-84
2021/12/09 07:55:23;;;;;;;16.50;15.20;;;3.40;99.90;;;;;;4978294;28;20198;-85
2021/12/09 07:57:50;;;;;;;17.00;15.80;;;3.50;99.90;;;;;;4987709;28;20207;-86
2021/12/09 08:00:20;;;;;;;16.97;15.53;;;3.50;99.90;;;;;;4997851;28;20718;-85
2021/12/09 08:02:48;;;;;;;17.43;16.10;;;3.50;99.90;;;;;;4990671;28;20194;-85
2021/12/09 08:05:18;;;;;;;17.43;15.70;;;3.60;99.90;;;;;;4993137;28;20206;-86
2021/12/09 08:07:45;;;;;;;17.03;15.70;;;3.60;99.90;;;;;;4994965;28;20408;-85
2021/12/09 08:10:16;;;;;;;16.30;14.97;;;3.60;99.90;;;;;;4991743;28;20240;-85
2021/12/09 08:12:43;;;;;;;15.63;14.53;;;3.70;99.90;;;;;;4999968;28;20209;-86
2021/12/09 08:15:12;;;;;;;16.57;15.27;;;3.60;99.90;;;;;;4990574;28;20194;-85
2021/12/09 08:17:57;;;;;;;16.23;15.13;;;3.70;99.90;;;;;;4988528;28;20732;-86
2021/12/09 08:20:27;;;;;;;17.07;15.67;;;3.70;99.90;;;;;;4987727;28;20217;-85
2021/12/09 08:22:54;;;;;;;17.47;15.73;;;3.60;99.90;;;;;;4989096;28;20194;-84
2021/12/09 08:25:21;;;;;;;12.03;10.93;;;3.70;99.90;;;;;;4992733;28;20572;-85
2021/12/09 08:27:48;;;;;;;14.97;13.57;;;3.70;99.90;;;;;;4990565;28;20216;-85
2021/12/09 08:30:18;;;;;;;16.40;15.17;;;3.70;99.90;;;;;;4988597;28;20287;-86
2021/12/09 08:32:45;;;;;;;15.73;14.50;;;3.70;99.90;;;;;;4989162;28;20240;-84
2021/12/09 08:35:15;;;;;;;15.03;14.10;;;3.80;99.90;;;;;;4989221;28;20201;-84
2021/12/09 08:37:44;;;;;;;15.67;14.57;;;3.80;99.90;;;;;;4991335;28;20206;-84
2021/12/09 08:40:13;;;;;;;16.23;14.87;;;3.80;99.90;;;;;;4995368;28;20217;-85
2021/12/09 08:42:40;;;;;;;15.40;14.30;;;3.90;99.90;;;;;;4984496;28;20190;-84
2021/12/09 08:45:10;;;;;;;15.67;14.67;;;4.00;99.90;;;;;;4991176;28;20209;-85
2021/12/09 08:47:38;;;;;;;15.10;14.07;;;4.00;99.90;;;;;;4998331;28;20200;-84
2021/12/09 08:50:08;;;;;;;16.13;15.03;;;4.10;99.90;;;;;;4991520;28;20221;-84
2021/12/09 08:52:36;;;;;;;15.43;14.43;;;4.10;99.90;;;;;;4993243;28;20214;-84
2021/12/09 08:55:06;;;;;;;15.87;14.57;;;4.10;99.90;;;;;;4990942;28;20212;-86
2021/12/09 08:57:33;;;;;;;16.43;15.30;;;4.20;99.90;;;;;;4994040;28;20194;-84
2021/12/09 09:00:00;;;;;;;15.97;14.90;;;4.20;99.90;;;;;;4988179;28;20221;-84
2021/12/09 09:02:27;;;;;;;15.77;14.67;;;4.20;99.90;;;;;;4991070;28;20192;-84
2021/12/09 09:04:57;;;;;;;15.90;14.63;;;4.30;99.90;;;;;;4987427;28;20211;-84
2021/12/09 09:07:24;;;;;;;15.80;14.53;;;4.30;99.90;;;;;;4994711;28;20194;-84
2021/12/09 09:09:51;;;;;;;15.83;14.63;;;4.30;99.90;;;;;;4989533;28;20217;-84
2021/12/09 09:12:19;;;;;;;15.20;14.10;;;4.30;99.90;;;;;;4985442;28;20225;-84
2021/12/09 09:14:46;;;;;;;15.40;14.30;;;4.30;99.90;;;;;;4988151;28;20209;-85
2021/12/09 09:17:13;;;;;;;15.37;14.37;;;4.30;99.90;;;;;;4992199;28;20574;-84
2021/12/09 09:19:40;;;;;;;15.40;14.40;;;4.30;99.90;;;;;;4994793;28;20234;-84
2021/12/09 09:22:08;;;;;;;15.37;14.27;;;4.30;99.90;;;;;;4982540;28;20689;-85
2021/12/09 09:24:35;;;;;;;15.17;14.17;;;4.30;99.90;;;;;;4989213;28;20215;-84
2021/12/09 09:27:02;;;;;;;14.77;13.70;;;4.40;99.90;;;;;;4994705;28;20240;-84
2021/12/09 09:29:32;;;;;;;15.10;13.90;;;4.40;99.90;;;;;;4986246;28;20221;-84
2021/12/09 09:31:59;;;;;;;13.53;12.57;;;4.40;99.90;;;;;;4986492;28;20206;-84
2021/12/09 09:34:26;;;;;;;14.07;13.00;;;4.40;99.90;;;;;;4989554;28;20640;-84
2021/12/09 09:36:53;;;;;;;8.37;7.13;;;4.40;99.90;;;;;;4983663;28;20750;-84
2021/12/09 09:39:22;;;;;;;14.30;13.37;;;4.50;99.90;;;;;;4993353;28;20217;-84
2021/12/09 09:41:59;;;;;;;14.13;13.20;;;4.50;99.90;;;;;;4986194;28;20284;-84
2021/12/09 09:44:30;;;;;;;13.93;13.10;;;4.50;99.90;;;;;;4993530;28;20211;-85
2021/12/09 09:47:00;;;;;;;13.90;13.00;;;4.60;99.90;;;;;;4986475;28;20301;-84
2021/12/09 09:49:29;;;;;;;14.03;13.13;;;4.60;99.90;;;;;;4983322;28;20221;-84
2021/12/09 09:51:57;;;;;;;14.10;13.20;;;4.70;99.90;;;;;;4986589;28;20240;-84
2021/12/09 09:54:26;;;;;;;14.13;13.23;;;4.80;99.90;;;;;;4988825;28;20769;-84
2021/12/09 09:56:53;;;;;;;14.60;13.60;;;4.80;99.90;;;;;;4987656;28;20205;-84
2021/12/09 09:59:20;;;;;;;14.97;13.80;;;4.80;99.90;;;;;;4994034;28;20221;-84
2021/12/09 10:01:52;;;;;;;14.60;13.60;;;4.90;99.90;;;;;;4986171;28;20205;-84
2021/12/09 10:04:33;;;;;;;14.90;13.80;;;4.90;99.90;;;;;;4984794;28;20209;-84
2021/12/09 10:07:01;;;;;;;14.30;13.40;;;5.00;99.90;;;;;;4986390;28;20225;-84
2021/12/09 10:09:28;;;;;;;14.33;13.47;;;5.10;99.90;;;;;;4986602;28;20284;-86
2021/12/09 10:11:56;;;;;;;14.70;13.70;;;5.10;99.90;;;;;;4984423;28;20666;-84
2021/12/09 10:14:26;;;;;;;14.30;13.37;;;5.20;99.90;;;;;;4987444;28;20257;-84
2021/12/09 10:17:06;;;;;;;7.87;7.07;;;5.20;99.90;;;;;;4986373;28;20588;-84
2021/12/09 10:19:36;;;;;;;9.77;8.97;;;5.30;99.90;;;;;;4983522;28;20218;-84
2021/12/09 10:22:13;;;;;;;9.83;9.13;;;5.30;99.90;;;;;;4984242;28;20216;-84
2021/12/09 10:24:41;;;;;;;8.90;8.20;;;5.40;99.90;;;;;;4981267;28;20190;-84
2021/12/09 10:27:13;;;;;;;9.80;9.00;;;5.40;99.90;;;;;;4982128;28;20295;-84
2021/12/09 10:29:43;;;;;;;9.50;8.80;;;5.50;99.90;;;;;;4983987;28;20232;-84
2021/12/09 10:32:17;;;;;;;10.87;9.90;;;5.50;99.90;;;;;;4980254;28;20256;-84
2021/12/09 10:34:47;;;;;;;9.77;8.93;;;5.50;99.90;;;;;;4989306;28;20256;-84
2021/12/09 10:37:18;;;;;;;8.10;7.30;;;5.50;99.90;;;;;;4988534;28;20567;-84
2021/12/09 10:39:48;;;;;;;7.83;7.13;;;5.50;99.90;;;;;;4983580;28;20247;-85
2021/12/09 10:42:19;;;;;;;7.17;6.57;;;5.60;99.90;;;;;;4982433;28;20205;-84
2021/12/09 10:44:53;;;;;;;5.53;4.70;;;5.60;99.90;;;;;;5007626;28;20294;-84
2021/12/09 10:47:35;;;;;;;5.50;5.10;;;5.70;99.90;;;;;;4994340;28;20212;-85
2021/12/09 10:50:16;;;;;;;6.70;5.17;;;5.80;99.90;;;;;;4998638;28;20724;-85
2021/12/09 10:52:48;;;;;;;7.03;4.77;;;5.70;99.90;;;;;;4992539;28;20289;-85
2021/12/09 10:55:23;;;;;;;7.03;5.70;;;5.70;99.90;;;;;;4988577;28;20209;-85
2021/12/09 10:57:56;;;;;;;7.80;7.10;;;5.70;99.90;;;;;;4986826;28;20201;-86
2021/12/09 11:00:27;;;;;;;6.03;5.50;;;5.70;99.90;;;;;;4981606;28;20246;-85
2021/12/09 11:03:18;;;;;;;7.00;6.40;;;5.60;99.90;;;;;;4988358;28;20212;-84
2021/12/09 11:05:52;;;;;;;14.00;13.00;;;5.60;99.90;;;;;;4990625;28;20198;-85
2021/12/09 11:08:26;;;;;;;6.37;5.77;;;5.60;99.90;;;;;;4992442;28;20632;-84
2021/12/09 11:11:03;;;;;;;13.40;12.40;;;5.60;99.90;;;;;;4984002;28;20260;-85
2021/12/09 11:13:38;;;;;;;12.13;11.20;;;5.60;99.90;;;;;;4988222;28;20224;-85
2021/12/09 11:16:07;;;;;;;11.70;10.80;;;5.60;99.90;;;;;;4999041;28;20211;-84
2021/12/09 11:18:38;;;;;;;13.20;12.10;;;5.50;99.90;;;;;;4994219;28;20202;-85
2021/12/09 11:21:14;;;;;;;10.67;9.67;;;5.50;99.90;;;;;;4992256;28;20589;-84
2021/12/09 11:23:45;;;;;;;12.40;11.60;;;5.60;99.90;;;;;;4986660;28;20469;-85
2021/12/09 11:26:31;;;;;;;9.00;8.40;;;5.60;99.90;;;;;;4994294;28;20734;-85
2021/12/09 11:29:00;;;;;;;10.00;9.27;;;5.50;99.90;;;;;;4986648;28;20604;-84
2021/12/09 11:31:32;;;;;;;9.80;9.03;;;5.60;99.90;;;;;;5000111;28;20262;-85
2021/12/09 11:34:06;;;;;;;5.37;4.83;;;5.60;99.90;;;;;;4989715;28;20222;-84
2021/12/09 11:36:47;;;;;;;14.47;13.47;;;5.70;99.90;;;;;;4982440;28;20209;-84
2021/12/09 11:39:19;;;;;;;12.03;11.20;;;5.70;99.90;;;;;;4991006;28;20233;-84
2021/12/09 11:41:48;;;;;;;13.53;12.63;;;5.70;99.90;;;;;;4987373;28;20202;-84
2021/12/09 11:44:15;;;;;;;14.93;13.90;;;5.80;99.90;;;;;;4994975;28;20185;-84
2021/12/09 11:46:45;;;;;;;14.00;13.07;;;5.80;99.90;;;;;;4988929;28;20208;-84
2021/12/09 11:49:12;;;;;;;6.57;5.90;;;5.80;99.90;;;;;;4981173;28;20229;-84
2021/12/09 11:51:41;;;;;;;9.80;9.10;;;5.80;99.90;;;;;;4997243;28;20209;-84
2021/12/09 11:54:10;;;;;;;12.40;11.47;;;5.70;99.90;;;;;;4995313;28;20767;-85
2021/12/09 11:56:53;;;;;;;16.10;15.10;;;5.70;99.90;;;;;;4993446;28;20629;-85
2021/12/09 12:11:26;;;;;;;13.97;12.83;;;5.90;99.90;;;;;;4986283;28;20247;-84
2021/12/09 12:13:58;;;;;;;7.37;5.97;;;6.00;99.90;;;;;;4992955;28;20225;-84
2021/12/09 12:16:51;;;;;;;5.80;4.43;;;6.00;99.90;;;;;;4995877;28;20210;-84
2021/12/09 12:19:30;;;;;;;5.10;4.60;;;6.10;99.90;;;;;;4995113;28;20226;-84
2021/12/09 12:22:20;;;;;;;10.10;9.30;;;6.10;99.90;;;;;;4980296;28;20207;-84
2021/12/09 12:25:06;;;;;;;14.37;13.37;;;6.20;99.90;;;;;;4986535;28;20194;-85
2021/12/09 12:31:17;;;;;;;14.00;13.00;;;6.20;99.90;;;;;;5006969;28;20308;-84
2021/12/09 12:34:36;;;;;;;13.83;12.83;;;6.30;99.90;;;;;;4994053;28;20253;-84
2021/12/09 12:37:14;;;;;;;13.90;13.10;;;6.30;99.90;;;;;;4988017;28;20655;-84
2021/12/09 12:40:00;;;;;;;13.60;12.70;;;6.30;99.90;;;;;;4982913;28;20248;-84
2021/12/09 12:42:46;;;;;;;14.23;13.27;;;6.40;99.90;;;;;;4986312;28;20198;-85
2021/12/09 12:45:48;;;;;;;13.77;12.67;;;6.40;99.90;;;;;;4983915;28;20191;-84
2021/12/09 12:48:56;;;;;;;13.73;12.63;;;6.30;99.90;;;;;;4984569;28;20217;-84
2021/12/09 12:51:29;;;;;;;13.20;12.30;;;6.20;99.90;;;;;;4985948;28;20686;-84
2021/12/09 12:53:59;;;;;;;12.53;11.80;;;6.20;99.90;;;;;;4984375;28;20220;-84
2021/12/09 12:56:28;;;;;;;12.83;12.00;;;6.10;99.90;;;;;;4991319;28;20236;-84
2021/12/09 12:59:21;;;;;;;14.07;13.00;;;6.10;99.90;;;;;;4993161;28;20218;-84
2021/12/09 13:02:14;;;;;;;13.53;12.57;;;6.00;99.90;;;;;;4987953;28;20194;-85
2021/12/09 13:04:52;;;;;;;14.13;13.07;;;6.00;99.90;;;;;;5005079;28;20226;-84
2021/12/09 13:07:29;;;;;;;12.93;12.07;;;6.00;99.90;;;;;;4985804;28;20207;-84
2021/12/09 13:10:26;;;;;;;12.90;11.80;;;6.00;99.90;;;;;;4994140;28;20739;-85